sensor_id;sensor_type;location;lat;lon;timestamp;temperature;humidity
44900;DHT22;30628;51.188;6.770;2023-05-20T10:48:18;19.40;99.90
44900;DHT22;30628;51.188;6.770;2023-05-20T10:50:45;19.10;99.90
44900;DHT22;30628;51.188;6.770;2023-05-20T10:53:13;19.20;99.90
44900;DHT22;30628;51.188;6.770;2023-05-20T10:55:45;19.10;99.90
44900;DHT22;30628;51.188;6.770;2023-05-20T10:58:13;19.00;99.90
44900;DHT22;30628;51.188;6.770;2023-05-20T11:00:39;19.10;99.90
44900;DHT22;30628;51.188;6.770;2023-05-20T11:03:06;19.10;99.90
44900;DHT22;30628;51.188;6.770;2023-05-20T11:05:32;19.10;99.90
44900;DHT22;30628;51.188;6.770;2023-05-20T11:08:00;19.20;99.90
44900;DHT22;30628;51.188;6.770;2023-05-20T11:10:27;19.10;99.90
44900;DHT22;30628;51.188;6.770;2023-05-20T11:12:54;19.10;99.90
44900;DHT22;30628;51.188;6.770;2023-05-20T11:15:21;19.00;99.90
44900;DHT22;30628;51.188;6.770;2023-05-20T11:17:54;18.90;99.90
44900;DHT22;30628;51.188;6.770;2023-05-20T11:20:22;18.80;99.90
44900;DHT22;30628;51.188;6.770;2023-05-20T11:22:53;18.70;99.90
44900;DHT22;30628;51.188;6.770;2023-05-20T11:25:20;18.60;99.90
44900;DHT22;30628;51.188;6.770;2023-05-20T11:27:49;18.60;99.90
44900;DHT22;30628;51.188;6.770;2023-05-20T11:30:17;18.70;99.90
44900;DHT22;30628;51.188;6.770;2023-05-20T11:33:02;18.70;99.90
44900;DHT22;30628;51.188;6.770;2023-05-20T11:35:30;18.80;99.90
44900;DHT22;30628;51.188;6.770;2023-05-20T11:38:08;18.90;99.90
44900;DHT22;30628;51.188;6.770;2023-05-20T11:40:35;19.10;99.90
44900;DHT22;30628;51.188;6.770;2023-05-20T11:43:02;19.10;99.90
44900;DHT22;30628;51.188;6.770;2023-05-20T11:45:42;19.10;99.90
44900;DHT22;30628;51.188;6.770;2023-05-20T11:48:09;19.00;99.90
44900;DHT22;30628;51.188;6.770;2023-05-20T11:50:38;19.20;99.90
44900;DHT22;30628;51.188;6.770;2023-05-20T11:53:07;19.20;99.90
44900;DHT22;30628;51.188;6.770;2023-05-20T11:55:43;19.30;99.90
44900;DHT22;30628;51.188;6.770;2023-05-20T11:58:10;19.20;99.90
44900;DHT22;30628;51.188;6.770;2023-05-20T12:00:36;19.30;99.90
44900;DHT22;30628;51.188;6.770;2023-05-20T12:03:02;19.40;99.90
44900;DHT22;30628;51.188;6.770;2023-05-20T12:05:29;19.50;99.90
44900;DHT22;30628;51.188;6.770;2023-05-20T12:07:55;19.60;99.90
44900;DHT22;30628;51.188;6.770;2023-05-20T12:10:21;19.60;99.90
44900;DHT22;30628;51.188;6.770;2023-05-20T12:12:47;19.70;99.90
44900;DHT22;30628;51.188;6.770;2023-05-20T12:15:13;19.80;99.90
44900;DHT22;30628;51.188;6.770;2023-05-20T12:17:45;19.90;99.90
44900;DHT22;30628;51.188;6.770;2023-05-20T12:20:13;19.80;99.90
44900;DHT22;30628;51.188;6.770;2023-05-20T12:22:40;19.80;99.90
44900;DHT22;30628;51.188;6.770;2023-05-20T12:25:06;19.70;99.90
44900;DHT22;30628;51.188;6.770;2023-05-20T12:27:32;19.80;99.90
44900;DHT22;30628;51.188;6.770;2023-05-20T12:29:59;19.90;99.90
44900;DHT22;30628;51.188;6.770;2023-05-20T12:32:25;19.90;99.90
44900;DHT22;30628;51.188;6.770;2023-05-20T12:34:51;20.00;99.90
44900;DHT22;30628;51.188;6.770;2023-05-20T12:37:17;20.00;99.90
44900;DHT22;30628;51.188;6.770;2023-05-20T12:39:43;20.10;99.90
44900;DHT22;30628;51.188;6.770;2023-05-20T12:42:09;20.20;99.90
44900;DHT22;30628;51.188;6.770;2023-05-20T12:44:36;20.30;99.90
44900;DHT22;30628;51.188;6.770;2023-05-20T12:47:02;20.40;99.90
44900;DHT22;30628;51.188;6.770;2023-05-20T12:49:28;20.40;99.90
44900;DHT22;30628;51.188;6.770;2023-05-20T12:51:54;20.30;99.90
44900;DHT22;30628;51.188;6.770;2023-05-20T12:54:20;20.30;99.90
44900;DHT22;30628;51.188;6.770;2023-05-20T12:56:47;20.30;99.90
44900;DHT22;30628;51.188;6.770;2023-05-20T12:59:13;20.20;99.90
44900;DHT22;30628;51.188;6.770;2023-05-20T13:01:40;20.30;99.90
44900;DHT22;30628;51.188;6.770;2023-05-20T13:04:06;20.40;99.90
44900;DHT22;30628;51.188;6.770;2023-05-20T13:06:33;20.30;99.90
44900;DHT22;30628;51.188;6.770;2023-05-20T13:08:59;20.20;99.90
44900;DHT22;30628;51.188;6.770;2023-05-20T13:11:25;20.30;99.90
44900;DHT22;30628;51.188;6.770;2023-05-20T13:13:54;20.20;99.90
44900;DHT22;30628;51.188;6.770;2023-05-20T13:16:22;20.30;99.90
44900;DHT22;30628;51.188;6.770;2023-05-20T13:18:49;20.30;99.90
44900;DHT22;30628;51.188;6.770;2023-05-20T13:21:15;20.50;99.90
44900;DHT22;30628;51.188;6.770;2023-05-20T13:23:41;20.50;99.90
44900;DHT22;30628;51.188;6.770;2023-05-20T13:26:08;20.40;99.90
44900;DHT22;30628;51.188;6.770;2023-05-20T13:28:42;20.30;99.90
44900;DHT22;30628;51.188;6.770;2023-05-20T13:31:08;20.30;99.90
44900;DHT22;30628;51.188;6.770;2023-05-20T13:33:34;20.30;99.90
44900;DHT22;30628;51.188;6.770;2023-05-20T13:36:00;20.30;99.90
44900;DHT22;30628;51.188;6.770;2023-05-20T13:38:27;20.50;99.90
44900;DHT22;30628;51.188;6.770;2023-05-20T13:40:53;20.50;99.90
44900;DHT22;30628;51.188;6.770;2023-05-20T13:43:19;20.50;99.90
44900;DHT22;30628;51.188;6.770;2023-05-20T13:48:55;20.40;99.90
44900;DHT22;30628;51.188;6.770;2023-05-20T13:51:21;20.50;99.90
44900;DHT22;30628;51.188;6.770;2023-05-20T13:53:47;20.50;99.90
44900;DHT22;30628;51.188;6.770;2023-05-20T13:56:14;20.60;99.90
44900;DHT22;30628;51.188;6.770;2023-05-20T13:58:40;20.70;99.90
44900;DHT22;30628;51.188;6.770;2023-05-20T14:01:06;20.60;99.90
44900;DHT22;30628;51.188;6.770;2023-05-20T14:03:33;20.50;99.90
44900;DHT22;30628;51.188;6.770;2023-05-20T14:05:59;20.60;99.90
44900;DHT22;30628;51.188;6.770;2023-05-20T14:08:26;20.70;99.90
44900;DHT22;30628;51.188;6.770;2023-05-20T14:10:52;20.60;99.90
44900;DHT22;30628;51.188;6.770;2023-05-20T14:13:24;20.60;99.90
44900;DHT22;30628;51.188;6.770;2023-05-20T14:15:51;20.60;99.90
44900;DHT22;30628;51.188;6.770;2023-05-20T14:18:17;20.70;99.90
44900;DHT22;30628;51.188;6.770;2023-05-20T14:20:44;20.70;99.90
44900;DHT22;30628;51.188;6.770;2023-05-20T14:23:11;20.60;99.90
44900;DHT22;30628;51.188;6.770;2023-05-20T14:25:37;20.60;99.90
44900;DHT22;30628;51.188;6.770;2023-05-20T14:28:04;20.60;99.90
44900;DHT22;30628;51.188;6.770;2023-05-20T14:30:30;20.70;99.90
44900;DHT22;30628;51.188;6.770;2023-05-20T14:32:57;20.80;99.90
44900;DHT22;30628;51.188;6.770;2023-05-20T14:35:23;20.90;99.90
44900;DHT22;30628;51.188;6.770;2023-05-20T14:37:49;20.70;99.90
44900;DHT22;30628;51.188;6.770;2023-05-20T14:40:15;20.60;99.90
44900;DHT22;30628;51.188;6.770;2023-05-20T14:42:50;20.50;99.90
44900;DHT22;30628;51.188;6.770;2023-05-20T14:45:16;20.50;99.90
44900;DHT22;30628;51.188;6.770;2023-05-20T14:47:42;20.40;99.90
44900;DHT22;30628;51.188;6.770;2023-05-20T14:50:09;20.40;99.90
44900;DHT22;30628;51.188;6.770;2023-05-20T14:52:35;20.40;99.90
44900;DHT22;30628;51.188;6.770;2023-05-20T14:55:01;20.30;99.90
44900;DHT22;30628;51.188;6.770;2023-05-20T14:57:27;20.30;99.90
44900;DHT22;30628;51.188;6.770;2023-05-20T14:59:53;20.40;99.90
44900;DHT22;30628;51.188;6.770;2023-05-20T15:02:20;20.40;99.90
44900;DHT22;30628;51.188;6.770;2023-05-20T15:04:46;20.30;99.90
44900;DHT22;30628;51.188;6.770;2023-05-20T15:07:14;20.40;99.90
44900;DHT22;30628;51.188;6.770;2023-05-20T15:09:40;20.50;99.90
44900;DHT22;30628;51.188;6.770;2023-05-20T15:12:08;20.50;99.90
44900;DHT22;30628;51.188;6.770;2023-05-20T15:14:34;20.60;99.90
44900;DHT22;30628;51.188;6.770;2023-05-20T15:17:00;20.60;99.90
44900;DHT22;30628;51.188;6.770;2023-05-20T15:19:27;20.50;99.90
44900;DHT22;30628;51.188;6.770;2023-05-20T15:21:53;20.50;99.90
44900;DHT22;30628;51.188;6.770;2023-05-20T15:24:19;20.60;99.90
44900;DHT22;30628;51.188;6.770;2023-05-20T15:26:46;20.50;99.90
44900;DHT22;30628;51.188;6.770;2023-05-20T15:29:12;20.50;99.90
44900;DHT22;30628;51.188;6.770;2023-05-20T15:31:38;20.50;99.90
44900;DHT22;30628;51.188;6.770;2023-05-20T15:34:04;20.50;99.90
44900;DHT22;30628;51.188;6.770;2023-05-20T15:36:31;20.40;99.90
44900;DHT22;30628;51.188;6.770;2023-05-20T15:38:57;20.30;99.90
44900;DHT22;30628;51.188;6.770;2023-05-20T15:41:23;20.20;99.90
44900;DHT22;30628;51.188;6.770;2023-05-20T15:43:50;20.30;99.90
44900;DHT22;30628;51.188;6.770;2023-05-20T15:46:17;20.10;99.90
44900;DHT22;30628;51.188;6.770;2023-05-20T15:48:43;20.20;99.90
44900;DHT22;30628;51.188;6.770;2023-05-20T15:51:09;20.10;99.90
44900;DHT22;30628;51.188;6.770;2023-05-20T15:53:35;20.10;99.90
44900;DHT22;30628;51.188;6.770;2023-05-20T15:56:01;20.10;99.90
44900;DHT22;30628;51.188;6.770;2023-05-20T15:58:28;19.90;99.90
44900;DHT22;30628;51.188;6.770;2023-05-20T16:00:54;20.00;99.90
44900;DHT22;30628;51.188;6.770;2023-05-20T16:03:20;20.00;99.90
44900;DHT22;30628;51.188;6.770;2023-05-20T16:05:46;19.90;99.90
44900;DHT22;30628;51.188;6.770;2023-05-20T16:08:12;20.00;99.90
44900;DHT22;30628;51.188;6.770;2023-05-20T16:10:38;20.00;99.90
44900;DHT22;30628;51.188;6.770;2023-05-20T16:13:04;20.00;99.90
44900;DHT22;30628;51.188;6.770;2023-05-20T16:15:31;20.00;99.90
44900;DHT22;30628;51.188;6.770;2023-05-20T16:18:01;19.90;99.90
44900;DHT22;30628;51.188;6.770;2023-05-20T16:20:27;19.90;99.90
44900;DHT22;30628;51.188;6.770;2023-05-20T16:22:53;19.80;99.90
44900;DHT22;30628;51.188;6.770;2023-05-20T16:25:19;19.80;99.90
44900;DHT22;30628;51.188;6.770;2023-05-20T16:27:45;19.70;99.90
44900;DHT22;30628;51.188;6.770;2023-05-20T16:30:12;19.50;99.90
44900;DHT22;30628;51.188;6.770;2023-05-20T16:32:38;19.60;99.90
44900;DHT22;30628;51.188;6.770;2023-05-20T16:35:05;19.70;99.90
44900;DHT22;30628;51.188;6.770;2023-05-20T16:37:33;19.60;99.90
44900;DHT22;30628;51.188;6.770;2023-05-20T16:39:59;19.60;99.90
44900;DHT22;30628;51.188;6.770;2023-05-20T16:42:25;19.60;99.90
44900;DHT22;30628;51.188;6.770;2023-05-20T16:44:51;19.70;99.90
44900;DHT22;30628;51.188;6.770;2023-05-20T16:47:18;19.60;99.90
44900;DHT22;30628;51.188;6.770;2023-05-20T16:49:44;19.60;99.90
44900;DHT22;30628;51.188;6.770;2023-05-20T16:52:10;19.40;99.90
44900;DHT22;30628;51.188;6.770;2023-05-20T16:54:36;19.40;99.90
44900;DHT22;30628;51.188;6.770;2023-05-20T16:57:03;19.50;99.90
44900;DHT22;30628;51.188;6.770;2023-05-20T16:59:30;19.50;99.90
44900;DHT22;30628;51.188;6.770;2023-05-20T17:01:56;19.60;99.90
44900;DHT22;30628;51.188;6.770;2023-05-20T17:04:23;19.40;99.90
44900;DHT22;30628;51.188;6.770;2023-05-20T17:06:49;19.40;99.90
44900;DHT22;30628;51.188;6.770;2023-05-20T17:09:16;19.50;99.90
44900;DHT22;30628;51.188;6.770;2023-05-20T17:11:42;19.50;99.90
44900;DHT22;30628;51.188;6.770;2023-05-20T17:14:08;19.40;99.90
44900;DHT22;30628;51.188;6.770;2023-05-20T17:16:35;19.40;99.90
44900;DHT22;30628;51.188;6.770;2023-05-20T17:19:01;19.40;99.90
44900;DHT22;30628;51.188;6.770;2023-05-20T17:21:27;19.40;99.90
44900;DHT22;30628;51.188;6.770;2023-05-20T17:23:53;19.40;99.90
44900;DHT22;30628;51.188;6.770;2023-05-20T17:26:19;19.40;99.90
44900;DHT22;30628;51.188;6.770;2023-05-20T17:28:47;19.50;99.90
44900;DHT22;30628;51.188;6.770;2023-05-20T17:31:13;19.50;99.90
44900;DHT22;30628;51.188;6.770;2023-05-20T17:33:39;19.30;99.90
44900;DHT22;30628;51.188;6.770;2023-05-20T17:36:06;19.10;99.90
44900;DHT22;30628;51.188;6.770;2023-05-20T17:38:32;19.10;99.90
44900;DHT22;30628;51.188;6.770;2023-05-20T17:40:58;18.90;99.90
44900;DHT22;30628;51.188;6.770;2023-05-20T17:43:24;19.00;99.90
44900;DHT22;30628;51.188;6.770;2023-05-20T17:45:50;18.90;99.90
44900;DHT22;30628;51.188;6.770;2023-05-20T17:48:16;18.90;99.90
44900;DHT22;30628;51.188;6.770;2023-05-20T17:50:43;18.80;99.90
44900;DHT22;30628;51.188;6.770;2023-05-20T17:53:09;18.80;99.90
44900;DHT22;30628;51.188;6.770;2023-05-20T17:55:35;18.80;99.90
44900;DHT22;30628;51.188;6.770;2023-05-20T17:58:02;18.80;99.90
44900;DHT22;30628;51.188;6.770;2023-05-20T18:00:28;18.70;99.90
44900;DHT22;30628;51.188;6.770;2023-05-20T18:02:54;18.80;99.90
44900;DHT22;30628;51.188;6.770;2023-05-20T18:05:23;18.80;99.90
44900;DHT22;30628;51.188;6.770;2023-05-20T18:07:49;18.60;99.90
44900;DHT22;30628;51.188;6.770;2023-05-20T18:10:17;18.60;99.90
44900;DHT22;30628;51.188;6.770;2023-05-20T18:12:43;18.80;99.90
44900;DHT22;30628;51.188;6.770;2023-05-20T18:15:10;18.60;99.90
44900;DHT22;30628;51.188;6.770;2023-05-20T18:17:39;18.60;99.90
44900;DHT22;30628;51.188;6.770;2023-05-20T18:20:06;18.60;99.90
44900;DHT22;30628;51.188;6.770;2023-05-20T18:22:34;18.60;99.90
44900;DHT22;30628;51.188;6.770;2023-05-20T18:25:00;18.80;99.90
44900;DHT22;30628;51.188;6.770;2023-05-20T18:27:33;18.60;99.90
44900;DHT22;30628;51.188;6.770;2023-05-20T18:29:59;18.60;99.90
44900;DHT22;30628;51.188;6.770;2023-05-20T18:32:25;18.60;99.90
44900;DHT22;30628;51.188;6.770;2023-05-20T18:34:53;18.50;99.90
44900;DHT22;30628;51.188;6.770;2023-05-20T18:37:19;18.50;99.90
44900;DHT22;30628;51.188;6.770;2023-05-20T18:39:45;18.50;99.90
44900;DHT22;30628;51.188;6.770;2023-05-20T18:42:11;18.50;99.90
44900;DHT22;30628;51.188;6.770;2023-05-20T18:44:38;18.50;99.90
44900;DHT22;30628;51.188;6.770;2023-05-20T18:47:31;18.60;99.90
44900;DHT22;30628;51.188;6.770;2023-05-20T18:49:58;18.50;99.90
44900;DHT22;30628;51.188;6.770;2023-05-20T18:52:24;18.50;99.90
44900;DHT22;30628;51.188;6.770;2023-05-20T18:54:50;18.50;99.90
44900;DHT22;30628;51.188;6.770;2023-05-20T18:57:16;18.40;99.90
44900;DHT22;30628;51.188;6.770;2023-05-20T18:59:42;18.40;99.90
44900;DHT22;30628;51.188;6.770;2023-05-20T19:02:08;18.40;99.90
44900;DHT22;30628;51.188;6.770;2023-05-20T19:04:34;18.40;99.90
44900;DHT22;30628;51.188;6.770;2023-05-20T19:07:00;18.50;99.90
44900;DHT22;30628;51.188;6.770;2023-05-20T19:09:27;18.50;99.90
44900;DHT22;30628;51.188;6.770;2023-05-20T19:11:53;18.60;99.90
44900;DHT22;30628;51.188;6.770;2023-05-20T19:14:24;18.50;99.90
44900;DHT22;30628;51.188;6.770;2023-05-20T19:16:51;18.50;99.90
44900;DHT22;30628;51.188;6.770;2023-05-20T19:19:17;18.50;99.90
44900;DHT22;30628;51.188;6.770;2023-05-20T19:21:43;18.30;99.90
44900;DHT22;30628;51.188;6.770;2023-05-20T19:24:09;18.20;99.90
44900;DHT22;30628;51.188;6.770;2023-05-20T19:26:36;18.20;99.90
44900;DHT22;30628;51.188;6.770;2023-05-20T19:29:02;18.20;99.90
44900;DHT22;30628;51.188;6.770;2023-05-20T19:31:28;18.20;99.90
44900;DHT22;30628;51.188;6.770;2023-05-20T19:33:54;18.20;99.90
44900;DHT22;30628;51.188;6.770;2023-05-20T19:36:20;18.00;99.90
44900;DHT22;30628;51.188;6.770;2023-05-20T19:38:47;18.00;99.90
44900;DHT22;30628;51.188;6.770;2023-05-20T19:41:13;18.00;99.90
44900;DHT22;30628;51.188;6.770;2023-05-20T19:43:39;18.00;99.90
44900;DHT22;30628;51.188;6.770;2023-05-20T19:46:05;17.90;99.90
44900;DHT22;30628;51.188;6.770;2023-05-20T19:48:34;17.90;99.90
44900;DHT22;30628;51.188;6.770;2023-05-20T19:51:00;18.00;99.90
44900;DHT22;30628;51.188;6.770;2023-05-20T19:53:36;18.00;99.90
44900;DHT22;30628;51.188;6.770;2023-05-20T19:56:03;17.90;99.90
44900;DHT22;30628;51.188;6.770;2023-05-20T19:58:29;17.90;99.90
44900;DHT22;30628;51.188;6.770;2023-05-20T20:00:55;17.90;99.90
44900;DHT22;30628;51.188;6.770;2023-05-20T20:03:22;17.90;99.90
44900;DHT22;30628;51.188;6.770;2023-05-20T20:05:48;17.90;99.90
44900;DHT22;30628;51.188;6.770;2023-05-20T20:08:14;17.80;99.90
44900;DHT22;30628;51.188;6.770;2023-05-20T20:10:40;17.80;99.90
44900;DHT22;30628;51.188;6.770;2023-05-20T20:13:06;17.80;99.90
44900;DHT22;30628;51.188;6.770;2023-05-20T20:15:32;17.90;99.90
44900;DHT22;30628;51.188;6.770;2023-05-20T20:18:02;17.90;99.90
44900;DHT22;30628;51.188;6.770;2023-05-20T20:20:28;17.80;99.90
44900;DHT22;30628;51.188;6.770;2023-05-20T20:22:55;17.70;99.90
44900;DHT22;30628;51.188;6.770;2023-05-20T20:25:22;17.70;99.90
44900;DHT22;30628;51.188;6.770;2023-05-20T20:27:48;17.90;99.90
44900;DHT22;30628;51.188;6.770;2023-05-20T20:30:15;17.70;99.90
44900;DHT22;30628;51.188;6.770;2023-05-20T20:32:41;17.60;99.90
44900;DHT22;30628;51.188;6.770;2023-05-20T20:35:07;17.60;99.90
44900;DHT22;30628;51.188;6.770;2023-05-20T20:37:33;17.50;99.90
44900;DHT22;30628;51.188;6.770;2023-05-20T20:40:00;17.40;99.90
44900;DHT22;30628;51.188;6.770;2023-05-20T20:42:40;17.20;99.90
44900;DHT22;30628;51.188;6.770;2023-05-20T20:45:10;17.10;99.90
44900;DHT22;30628;51.188;6.770;2023-05-20T20:47:40;17.10;99.90
44900;DHT22;30628;51.188;6.770;2023-05-20T20:50:09;17.00;99.90
44900;DHT22;30628;51.188;6.770;2023-05-20T20:52:37;17.10;99.90
44900;DHT22;30628;51.188;6.770;2023-05-20T20:55:08;17.00;99.90
44900;DHT22;30628;51.188;6.770;2023-05-20T20:57:35;17.00;99.90
44900;DHT22;30628;51.188;6.770;2023-05-20T21:00:11;17.00;99.90
44900;DHT22;30628;51.188;6.770;2023-05-20T21:02:43;16.90;99.90
44900;DHT22;30628;51.188;6.770;2023-05-20T21:05:09;16.90;99.90
44900;DHT22;30628;51.188;6.770;2023-05-20T21:07:35;16.90;99.90
44900;DHT22;30628;51.188;6.770;2023-05-20T21:10:08;17.00;99.90
44900;DHT22;30628;51.188;6.770;2023-05-20T21:12:43;16.90;99.90
44900;DHT22;30628;51.188;6.770;2023-05-20T21:15:09;16.80;99.90
44900;DHT22;30628;51.188;6.770;2023-05-20T21:17:44;16.80;99.90
44900;DHT22;30628;51.188;6.770;2023-05-20T21:20:11;16.80;99.90
44900;DHT22;30628;51.188;6.770;2023-05-20T21:22:37;16.80;99.90
44900;DHT22;30628;51.188;6.770;2023-05-20T21:25:03;16.70;99.90
44900;DHT22;30628;51.188;6.770;2023-05-20T21:27:30;16.80;99.90
44900;DHT22;30628;51.188;6.770;2023-05-20T21:29:56;16.80;99.90
44900;DHT22;30628;51.188;6.770;2023-05-20T21:32:22;16.70;99.90
44900;DHT22;30628;51.188;6.770;2023-05-20T21:34:48;16.60;99.90
44900;DHT22;30628;51.188;6.770;2023-05-20T21:37:14;16.60;99.90
44900;DHT22;30628;51.188;6.770;2023-05-20T21:39:40;16.70;99.90
44900;DHT22;30628;51.188;6.770;2023-05-20T21:42:07;16.60;99.90
44900;DHT22;30628;51.188;6.770;2023-05-20T21:44:33;16.50;99.90
44900;DHT22;30628;51.188;6.770;2023-05-20T21:46:59;16.50;99.90
44900;DHT22;30628;51.188;6.770;2023-05-20T21:49:25;16.50;99.90
44900;DHT22;30628;51.188;6.770;2023-05-20T21:51:51;16.40;99.90
44900;DHT22;30628;51.188;6.770;2023-05-20T21:54:17;16.50;99.90
44900;DHT22;30628;51.188;6.770;2023-05-20T21:56:43;16.40;99.90
44900;DHT22;30628;51.188;6.770;2023-05-20T21:59:09;16.40;99.90
44900;DHT22;30628;51.188;6.770;2023-05-20T22:01:36;16.50;99.90
44900;DHT22;30628;51.188;6.770;2023-05-20T22:04:02;16.50;99.90
44900;DHT22;30628;51.188;6.770;2023-05-20T22:06:28;16.40;99.90
44900;DHT22;30628;51.188;6.770;2023-05-20T22:08:54;16.40;99.90
44900;DHT22;30628;51.188;6.770;2023-05-20T22:11:20;16.40;99.90
44900;DHT22;30628;51.188;6.770;2023-05-20T22:13:47;16.40;99.90
44900;DHT22;30628;51.188;6.770;2023-05-20T22:16:14;16.40;99.90
44900;DHT22;30628;51.188;6.770;2023-05-20T22:18:41;16.40;99.90
44900;DHT22;30628;51.188;6.770;2023-05-20T22:21:08;16.40;99.90
44900;DHT22;30628;51.188;6.770;2023-05-20T22:23:34;16.40;99.90
44900;DHT22;30628;51.188;6.770;2023-05-20T22:26:00;16.40;99.90
44900;DHT22;30628;51.188;6.770;2023-05-20T22:28:26;16.40;99.90
44900;DHT22;30628;51.188;6.770;2023-05-20T22:30:52;16.40;99.90
44900;DHT22;30628;51.188;6.770;2023-05-20T22:33:19;16.30;99.90
44900;DHT22;30628;51.188;6.770;2023-05-20T22:35:47;16.40;99.90
44900;DHT22;30628;51.188;6.770;2023-05-20T22:38:13;16.40;99.90
44900;DHT22;30628;51.188;6.770;2023-05-20T22:40:39;16.40;99.90
44900;DHT22;30628;51.188;6.770;2023-05-20T22:43:05;16.30;99.90
44900;DHT22;30628;51.188;6.770;2023-05-20T22:45:32;16.50;99.90
44900;DHT22;30628;51.188;6.770;2023-05-20T22:47:58;16.50;99.90
44900;DHT22;30628;51.188;6.770;2023-05-20T22:50:24;16.40;99.90
44900;DHT22;30628;51.188;6.770;2023-05-20T22:52:51;16.40;99.90
44900;DHT22;30628;51.188;6.770;2023-05-20T22:55:17;16.40;99.90
44900;DHT22;30628;51.188;6.770;2023-05-20T22:57:43;16.50;99.90
44900;DHT22;30628;51.188;6.770;2023-05-20T23:00:10;16.50;99.90
44900;DHT22;30628;51.188;6.770;2023-05-20T23:02:46;16.50;99.90
44900;DHT22;30628;51.188;6.770;2023-05-20T23:05:21;16.50;99.90
44900;DHT22;30628;51.188;6.770;2023-05-20T23:07:47;16.50;99.90
44900;DHT22;30628;51.188;6.770;2023-05-20T23:10:23;16.60;99.90
44900;DHT22;30628;51.188;6.770;2023-05-20T23:12:50;16.60;99.90
44900;DHT22;30628;51.188;6.770;2023-05-20T23:15:17;16.50;99.90
44900;DHT22;30628;51.188;6.770;2023-05-20T23:17:44;16.60;99.90
44900;DHT22;30628;51.188;6.770;2023-05-20T23:20:10;16.60;99.90
44900;DHT22;30628;51.188;6.770;2023-05-20T23:22:37;16.70;99.90
44900;DHT22;30628;51.188;6.770;2023-05-20T23:25:03;16.60;99.90
44900;DHT22;30628;51.188;6.770;2023-05-20T23:27:30;16.70;99.90
44900;DHT22;30628;51.188;6.770;2023-05-20T23:29:57;16.70;99.90
44900;DHT22;30628;51.188;6.770;2023-05-20T23:32:24;16.60;99.90
44900;DHT22;30628;51.188;6.770;2023-05-20T23:34:50;16.50;99.90
44900;DHT22;30628;51.188;6.770;2023-05-20T23:37:18;16.60;99.90
44900;DHT22;30628;51.188;6.770;2023-05-20T23:39:45;16.60;99.90
44900;DHT22;30628;51.188;6.770;2023-05-20T23:42:12;16.60;99.90
44900;DHT22;30628;51.188;6.770;2023-05-20T23:44:38;16.50;99.90
44900;DHT22;30628;51.188;6.770;2023-05-20T23:47:22;16.60;99.90
44900;DHT22;30628;51.188;6.770;2023-05-20T23:49:58;16.70;99.90
44900;DHT22;30628;51.188;6.770;2023-05-20T23:52:24;16.70;99.90
44900;DHT22;30628;51.188;6.770;2023-05-20T23:54:51;16.70;99.90
44900;DHT22;30628;51.188;6.770;2023-05-20T23:57:27;16.60;99.90
44900;DHT22;30628;51.188;6.770;2023-05-20T23:59:53;16.70;99.90
